Petrovskij Zavod, Russia
Current Conditions -  °F | °C
As of 3:00 PM on Saturday 25 Oct 2014 (Local Time) from UIUU Reporting Station
Scattered Clouds Scattered Clouds  
Wind Chill: 18°   Ceiling: Unl
Heat Index: 28°   Visibility: 6mi
Dew Point: 10°   Wind: 13mph
Humidity: 47%   Direction: 300°WNW
Pressure: 30.33"   Gusts: 25mph
Location:  51.32°N, 108.87°E
Report Text: UIUU 250600Z 30006G11MPS 9999 SCT033 M02/M12 Q1027 NOSIG RMKQFE726/0968 26410260
Loading
Personal Weather Stations






























Interactive Weather Map
Tropical Storm Tracking
New forecast layout! Learn more

10-Day Weather Forecast

Advertisements
Track Severe Weather on mobile